createdAt,value
2023-01-17T00:02:21.665Z,2.65
2023-01-17T00:06:23.181Z,2.68
2023-01-17T00:10:09.480Z,2.57
2023-01-17T00:13:52.290Z,2.61
2023-01-17T00:17:34.958Z,2.63
2023-01-17T00:21:35.404Z,2.68
2023-01-17T00:25:38.331Z,2.60
2023-01-17T00:29:20.043Z,2.59
2023-01-17T00:33:01.678Z,2.54
2023-01-17T00:36:43.204Z,2.53
2023-01-17T00:40:26.125Z,2.45
2023-01-17T00:44:26.226Z,2.43
2023-01-17T00:48:26.664Z,2.43
2023-01-17T00:52:26.914Z,2.38
2023-01-17T00:56:28.617Z,2.39
2023-01-17T01:00:29.968Z,2.30
2023-01-17T01:04:30.148Z,2.19
2023-01-17T01:08:38.616Z,2.12
2023-01-17T01:12:40.092Z,2.09
2023-01-17T01:16:40.308Z,2.07
2023-01-17T01:20:40.562Z,2.10
2023-01-17T01:24:40.754Z,2.05
2023-01-17T01:28:42.829Z,2.01
2023-01-17T01:32:43.033Z,1.93
2023-01-17T01:36:25.720Z,1.87
2023-01-17T01:40:10.147Z,1.92
2023-01-17T01:43:55.633Z,1.93
2023-01-17T01:47:40.730Z,1.88
2023-01-17T01:51:26.366Z,1.85
2023-01-17T01:55:13.088Z,1.86
2023-01-17T01:58:58.400Z,1.83
2023-01-17T02:02:42.003Z,1.87
2023-01-17T02:06:29.455Z,1.94
2023-01-17T02:10:12.794Z,1.78
2023-01-17T02:13:57.144Z,1.76
2023-01-17T02:17:47.785Z,1.86
2023-01-17T02:21:33.180Z,1.81
2023-01-17T02:25:34.524Z,1.74
2023-01-17T02:29:43.143Z,1.78
2023-01-17T02:33:32.565Z,1.74
2023-01-17T02:37:18.095Z,1.64
2023-01-17T02:41:03.765Z,1.72
2023-01-17T02:44:46.627Z,1.73
2023-01-17T02:48:32.141Z,1.73
2023-01-17T02:52:23.808Z,1.68
2023-01-17T02:56:12.436Z,1.61
2023-01-17T03:00:01.330Z,1.56
2023-01-17T03:03:49.622Z,1.47
2023-01-17T03:07:33.368Z,1.47
2023-01-17T03:11:16.536Z,1.44
2023-01-17T03:14:59.396Z,1.58
2023-01-17T03:18:42.365Z,1.55
2023-01-17T03:22:26.376Z,1.53
2023-01-17T03:26:09.242Z,1.56
2023-01-17T03:29:51.897Z,1.60
2023-01-17T03:33:34.601Z,1.47
2023-01-17T03:37:17.275Z,1.47
2023-01-17T03:41:01.327Z,1.46
2023-01-17T03:44:43.998Z,1.44
2023-01-17T03:48:26.658Z,1.43
2023-01-17T03:52:09.353Z,1.32
2023-01-17T03:55:52.054Z,1.31
2023-01-17T03:59:36.157Z,1.25
2023-01-17T04:03:18.844Z,1.23
2023-01-17T04:07:01.525Z,1.22
2023-01-17T04:10:44.248Z,1.16
2023-01-17T04:14:26.997Z,1.16
2023-01-17T04:18:12.847Z,1.20
2023-01-17T04:21:55.560Z,1.18
2023-01-17T04:25:38.506Z,1.11
2023-01-17T04:29:21.477Z,1.02
2023-01-17T04:33:04.262Z,1.06
2023-01-17T04:36:48.271Z,1.08
2023-01-17T04:40:30.949Z,1.06
2023-01-17T04:44:13.641Z,1.11
2023-01-17T04:47:56.498Z,1.07
2023-01-17T04:51:39.190Z,1.08
2023-01-17T04:55:23.231Z,1.13
2023-01-17T04:59:06.051Z,1.17
2023-01-17T05:02:48.757Z,1.13
2023-01-17T05:06:31.489Z,1.18
2023-01-17T05:10:14.148Z,1.23
2023-01-17T05:13:58.180Z,1.24
2023-01-17T05:17:40.836Z,1.22
2023-01-17T05:21:23.673Z,1.24
2023-01-17T05:25:07.071Z,1.18
2023-01-17T05:28:49.715Z,1.18
2023-01-17T05:32:33.865Z,1.15
2023-01-17T05:36:16.537Z,1.23
2023-01-17T05:39:59.235Z,1.24
2023-01-17T05:43:41.965Z,1.23
2023-01-17T05:47:24.741Z,1.41
2023-01-17T05:51:08.877Z,1.37
2023-01-17T05:54:51.550Z,1.23
2023-01-17T05:58:34.228Z,1.17
2023-01-17T06:02:16.937Z,1.20
2023-01-17T06:05:59.633Z,1.21
2023-01-17T06:09:43.676Z,1.10
2023-01-17T06:13:26.515Z,1.10
2023-01-17T06:17:09.208Z,1.09
2023-01-17T06:20:54.231Z,1.04
2023-01-17T06:24:36.911Z,1.00
2023-01-17T06:28:22.866Z,0.98
2023-01-17T06:32:05.911Z,0.92
2023-01-17T06:35:50.009Z,0.90
2023-01-17T06:39:32.820Z,0.94
2023-01-17T06:43:15.557Z,0.83
2023-01-17T06:46:59.617Z,0.81
2023-01-17T06:50:42.310Z,0.81
2023-01-17T06:54:24.998Z,0.81
2023-01-17T06:58:07.647Z,0.81
2023-01-17T07:01:51.087Z,0.83
2023-01-17T07:05:36.290Z,0.88
2023-01-17T07:09:18.967Z,0.91
2023-01-17T07:13:01.644Z,0.88
2023-01-17T07:16:46.975Z,0.89
2023-01-17T07:20:29.655Z,0.91
2023-01-17T07:24:13.888Z,0.94
2023-01-17T07:27:57.638Z,0.99
2023-01-17T07:31:40.484Z,2.31
2023-01-17T07:35:26.654Z,2.08
2023-01-17T07:39:13.547Z,1.94
2023-01-17T07:43:01.980Z,1.74
2023-01-17T07:46:44.659Z,1.60
2023-01-17T07:50:27.317Z,1.58
2023-01-17T07:54:09.943Z,1.62
2023-01-17T07:57:54.108Z,1.67
2023-01-17T08:01:36.901Z,1.72
2023-01-17T08:05:20.002Z,1.73
2023-01-17T08:09:02.653Z,1.76
2023-01-17T08:12:46.390Z,1.81
2023-01-17T08:16:30.513Z,1.85
2023-01-17T08:20:13.579Z,1.92
2023-01-17T08:23:56.302Z,1.97
2023-01-17T08:27:39.245Z,2.01
2023-01-17T08:31:36.142Z,2.07
2023-01-17T08:35:21.011Z,2.17
2023-01-17T08:39:04.416Z,2.28
2023-01-17T08:42:54.896Z,2.36
2023-01-17T08:46:41.066Z,2.44
2023-01-17T08:50:24.983Z,2.51
2023-01-17T08:54:07.704Z,2.61
2023-01-17T08:57:50.503Z,2.68
2023-01-17T09:01:41.757Z,2.77
2023-01-17T09:05:27.738Z,2.86
2023-01-17T09:09:11.698Z,2.96
2023-01-17T09:12:54.445Z,2.99
2023-01-17T09:16:37.101Z,2.99
2023-01-17T09:20:20.063Z,3.08
2023-01-17T09:24:04.238Z,3.12
2023-01-17T09:27:47.753Z,3.18
2023-01-17T09:31:30.538Z,3.20
2023-01-17T09:35:13.589Z,3.20
2023-01-17T09:38:57.885Z,3.25
2023-01-17T09:42:42.246Z,3.26
2023-01-17T09:46:28.103Z,3.30
2023-01-17T09:50:21.792Z,3.36
2023-01-17T09:54:04.694Z,3.40
2023-01-17T09:57:57.474Z,3.48
2023-01-17T10:01:46.413Z,3.55
2023-01-17T10:05:40.698Z,3.55
2023-01-17T10:10:06.634Z,3.55
2023-01-17T10:13:59.707Z,3.52
2023-01-17T10:17:49.091Z,3.57
2023-01-17T10:21:44.942Z,3.68
2023-01-17T10:25:40.747Z,3.83
2023-01-17T10:29:28.387Z,3.96
2023-01-17T10:33:16.260Z,4.05
2023-01-17T10:37:03.157Z,4.07
2023-01-17T10:40:50.169Z,4.15
2023-01-17T10:44:36.962Z,4.14
2023-01-17T10:48:26.655Z,4.22
2023-01-17T10:52:14.487Z,4.34
2023-01-17T10:55:57.994Z,4.41
2023-01-17T10:59:42.061Z,4.44
2023-01-17T11:03:25.768Z,4.38
2023-01-17T11:07:14.052Z,4.38
2023-01-17T11:10:57.994Z,4.26
2023-01-17T11:14:42.081Z,4.23
2023-01-17T11:18:27.478Z,4.30
2023-01-17T11:22:15.151Z,4.21
2023-01-17T11:25:59.812Z,4.17
2023-01-17T11:29:43.916Z,4.27
2023-01-17T11:33:35.362Z,4.34
2023-01-17T11:37:19.568Z,4.37
2023-01-17T11:41:20.275Z,4.52
2023-01-17T11:45:25.831Z,4.64
2023-01-17T11:49:23.665Z,4.68
2023-01-17T11:53:08.124Z,4.77
2023-01-17T11:56:51.891Z,4.72
2023-01-17T12:00:39.283Z,4.74
2023-01-17T12:04:25.257Z,4.82
2023-01-17T12:08:15.462Z,4.76
2023-01-17T12:12:22.754Z,4.84
2023-01-17T12:16:30.153Z,4.75
2023-01-17T12:20:22.615Z,4.70
2023-01-17T12:24:29.618Z,4.78
2023-01-17T12:28:27.466Z,4.78
2023-01-17T12:32:24.821Z,4.89
2023-01-17T12:36:17.520Z,4.94
2023-01-17T12:40:03.469Z,4.97
2023-01-17T12:43:46.267Z,4.90
2023-01-17T12:47:31.194Z,4.91
2023-01-17T12:51:16.960Z,4.70
2023-01-17T12:55:03.496Z,4.76
2023-01-17T12:58:48.567Z,4.86
2023-01-17T13:02:37.491Z,4.92
2023-01-17T13:06:25.003Z,4.86
2023-01-17T13:10:26.219Z,4.73
2023-01-17T13:14:10.383Z,4.75
2023-01-17T13:17:58.699Z,4.71
2023-01-17T13:21:41.789Z,4.65
2023-01-17T13:25:34.386Z,4.67
2023-01-17T13:29:28.506Z,4.63
2023-01-17T13:33:35.788Z,4.67
2023-01-17T13:37:39.468Z,4.60
2023-01-17T13:41:37.957Z,4.63
2023-01-17T13:45:22.766Z,4.78
2023-01-17T13:49:35.143Z,4.88
2023-01-17T13:53:59.937Z,4.94
2023-01-17T13:57:46.683Z,5.06
2023-01-17T14:01:53.525Z,5.40
2023-01-17T14:05:58.325Z,5.79
2023-01-17T14:09:43.208Z,5.79
2023-01-17T14:13:34.009Z,5.50
2023-01-17T14:17:49.029Z,5.46
2023-01-17T14:21:33.405Z,5.63
2023-01-17T14:25:18.970Z,5.79
2023-01-17T14:29:35.057Z,5.88
2023-01-17T14:33:20.673Z,5.91
2023-01-17T14:37:17.263Z,5.75
2023-01-17T14:41:02.399Z,5.56
2023-01-17T14:44:50.498Z,5.30
2023-01-17T14:48:33.816Z,5.09
2023-01-17T14:52:21.648Z,4.89
2023-01-17T14:56:14.514Z,4.71
2023-01-17T15:00:16.158Z,4.59
2023-01-17T15:03:59.103Z,4.47
2023-01-17T15:07:44.417Z,4.40
2023-01-17T15:11:30.074Z,4.36
2023-01-17T15:15:28.773Z,4.26
2023-01-17T15:19:12.834Z,4.10
2023-01-17T15:22:56.901Z,4.04
2023-01-17T15:26:42.140Z,3.99
2023-01-17T15:30:25.392Z,3.97
2023-01-17T15:34:09.634Z,3.94
2023-01-17T15:37:54.577Z,3.87
2023-01-17T15:41:39.700Z,3.78
2023-01-17T15:45:25.718Z,3.76
2023-01-17T15:49:20.043Z,3.69
2023-01-17T15:53:04.749Z,3.57
2023-01-17T15:56:48.937Z,3.55
2023-01-17T16:00:38.360Z,3.50
2023-01-17T16:04:28.641Z,3.44
2023-01-17T16:08:33.114Z,3.36
2023-01-17T16:12:17.155Z,3.35
2023-01-17T16:16:19.877Z,3.31
2023-01-17T16:20:02.757Z,3.32
2023-01-17T16:23:45.655Z,3.29
2023-01-17T16:27:29.966Z,3.31
2023-01-17T16:31:13.026Z,3.26
2023-01-17T16:34:55.724Z,3.17
2023-01-17T16:38:38.416Z,3.17
2023-01-17T16:42:21.072Z,3.15
2023-01-17T16:46:05.245Z,3.13
2023-01-17T16:49:47.946Z,3.17
2023-01-17T16:53:30.732Z,3.20
2023-01-17T16:57:14.252Z,3.22
2023-01-17T17:00:57.766Z,3.23
2023-01-17T17:04:41.993Z,3.23
2023-01-17T17:08:25.369Z,3.18
2023-01-17T17:12:08.683Z,3.16
2023-01-17T17:15:51.408Z,3.17
2023-01-17T17:19:34.546Z,3.18
2023-01-17T17:23:18.627Z,3.18
2023-01-17T17:27:01.338Z,3.21
2023-01-17T17:30:44.039Z,3.18
2023-01-17T17:34:27.665Z,3.23
2023-01-17T17:38:10.325Z,3.22
2023-01-17T17:41:54.399Z,3.22
2023-01-17T17:45:37.029Z,3.26
2023-01-17T17:49:21.686Z,3.25
2023-01-17T17:53:04.370Z,3.25
2023-01-17T17:56:48.258Z,3.26
2023-01-17T18:00:32.278Z,3.24
2023-01-17T18:04:15.240Z,3.25
2023-01-17T18:07:57.861Z,3.26
2023-01-17T18:11:42.712Z,3.27
2023-01-17T18:15:26.368Z,3.23
2023-01-17T18:19:14.511Z,3.17
2023-01-17T18:22:57.280Z,3.16
2023-01-17T18:26:41.656Z,3.15
2023-01-17T18:30:24.333Z,3.14
2023-01-17T18:34:09.091Z,3.13
2023-01-17T18:37:53.260Z,3.10
2023-01-17T18:41:36.087Z,3.09
2023-01-17T18:45:18.800Z,3.06
2023-01-17T18:49:01.769Z,3.07
2023-01-17T18:52:44.493Z,3.09
2023-01-17T18:56:29.533Z,3.11
2023-01-17T19:00:14.836Z,3.10
2023-01-17T19:04:00.166Z,3.11
2023-01-17T19:07:42.890Z,3.11
2023-01-17T19:11:26.564Z,3.12
2023-01-17T19:15:11.715Z,3.15
2023-01-17T19:18:54.769Z,3.14
2023-01-17T19:22:37.481Z,3.15
2023-01-17T19:26:22.845Z,3.15
2023-01-17T19:30:06.633Z,3.16
2023-01-17T19:33:52.117Z,3.13
2023-01-17T19:37:34.756Z,3.12
2023-01-17T19:41:20.187Z,3.14
2023-01-17T19:45:03.127Z,3.14
2023-01-17T19:48:46.003Z,3.11
2023-01-17T19:52:31.767Z,3.06
2023-01-17T19:56:15.848Z,3.03
2023-01-17T19:59:58.597Z,3.03
2023-01-17T20:03:42.413Z,3.04
2023-01-17T20:07:26.235Z,3.04
2023-01-17T20:11:13.417Z,3.00
2023-01-17T20:14:56.167Z,2.94
2023-01-17T20:18:39.053Z,2.87
2023-01-17T20:22:22.016Z,2.81
2023-01-17T20:26:05.029Z,2.73
2023-01-17T20:29:50.444Z,2.66
2023-01-17T20:33:33.304Z,2.64
2023-01-17T20:37:15.971Z,2.60
2023-01-17T20:40:58.621Z,2.57
2023-01-17T20:44:41.317Z,2.48
2023-01-17T20:48:25.362Z,2.43
2023-01-17T20:52:08.115Z,2.35
2023-01-17T20:55:57.261Z,2.38
2023-01-17T20:59:40.047Z,2.34
2023-01-17T21:03:23.814Z,2.26
2023-01-17T21:07:07.857Z,2.17
2023-01-17T21:10:50.831Z,2.17
2023-01-17T21:14:33.603Z,2.05
2023-01-17T21:18:17.220Z,2.03
2023-01-17T21:22:00.096Z,2.01
2023-01-17T21:25:44.135Z,1.98
2023-01-17T21:29:29.060Z,1.96
2023-01-17T21:33:11.781Z,1.87
2023-01-17T21:36:54.444Z,1.86
2023-01-17T21:40:37.170Z,1.80
2023-01-17T21:44:22.497Z,1.69
2023-01-17T21:48:08.089Z,1.81
2023-01-17T21:52:08.508Z,1.91
2023-01-17T21:56:05.111Z,1.90
2023-01-17T21:59:49.176Z,2.42
2023-01-17T22:03:31.880Z,4.40
2023-01-17T22:07:14.540Z,4.13
2023-01-17T22:10:57.158Z,3.49
2023-01-17T22:14:40.208Z,3.05
2023-01-17T22:18:24.511Z,2.76
2023-01-17T22:22:07.154Z,2.52
2023-01-17T22:25:49.950Z,2.33
2023-01-17T22:29:36.352Z,2.25
2023-01-17T22:33:19.026Z,2.17
2023-01-17T22:37:04.713Z,2.07
2023-01-17T22:40:47.458Z,2.02
2023-01-17T22:44:30.218Z,2.00
2023-01-17T22:48:14.618Z,1.97
2023-01-17T22:51:57.301Z,1.92
2023-01-17T22:55:41.482Z,1.81
2023-01-17T22:59:24.340Z,1.73
2023-01-17T23:03:07.195Z,1.73
2023-01-17T23:06:49.984Z,1.72
2023-01-17T23:10:50.254Z,1.68
2023-01-17T23:14:49.289Z,1.64
2023-01-17T23:19:00.951Z,1.63
2023-01-17T23:22:43.693Z,1.57
2023-01-17T23:26:26.619Z,1.48
2023-01-17T23:30:13.338Z,1.46
2023-01-17T23:33:56.127Z,1.46
2023-01-17T23:37:56.437Z,1.42
2023-01-17T23:41:55.941Z,1.40
2023-01-17T23:45:40.579Z,1.39
2023-01-17T23:49:23.329Z,1.41
2023-01-17T23:53:07.958Z,1.40
2023-01-17T23:56:50.727Z,1.37
